sensor_id;sensor_type;location;lat;lon;timestamp;P1;durP1;ratioP1;P2;durP2;ratioP2
69981;SDS011;57319;56.274;43.980;2023-12-28T00:02:06;23.67;;;9.40;;
69981;SDS011;57319;56.274;43.980;2023-12-28T00:04:32;17.90;;;8.07;;
69981;SDS011;57319;56.274;43.980;2023-12-28T00:07:00;21.30;;;9.30;;
69981;SDS011;57319;56.274;43.980;2023-12-28T00:09:27;10.13;;;5.40;;
69981;SDS011;57319;56.274;43.980;2023-12-28T00:11:52;12.45;;;6.20;;
69981;SDS011;57319;56.274;43.980;2023-12-28T00:14:18;10.43;;;5.72;;
69981;SDS011;57319;56.274;43.980;2023-12-28T00:16:44;15.23;;;7.90;;
69981;SDS011;57319;56.274;43.980;2023-12-28T00:19:09;13.60;;;7.50;;
69981;SDS011;57319;56.274;43.980;2023-12-28T00:21:35;13.48;;;7.20;;
69981;SDS011;57319;56.274;43.980;2023-12-28T00:24:01;7.88;;;5.60;;
69981;SDS011;57319;56.274;43.980;2023-12-28T00:26:27;18.63;;;7.53;;
69981;SDS011;57319;56.274;43.980;2023-12-28T00:28:53;13.50;;;7.35;;
69981;SDS011;57319;56.274;43.980;2023-12-28T00:31:18;19.38;;;8.32;;
69981;SDS011;57319;56.274;43.980;2023-12-28T00:33:44;11.68;;;7.22;;
69981;SDS011;57319;56.274;43.980;2023-12-28T00:36:10;15.75;;;7.20;;
69981;SDS011;57319;56.274;43.980;2023-12-28T00:38:36;4.65;;;3.03;;
69981;SDS011;57319;56.274;43.980;2023-12-28T00:41:01;9.32;;;6.85;;
69981;SDS011;57319;56.274;43.980;2023-12-28T00:43:27;7.25;;;5.50;;
69981;SDS011;57319;56.274;43.980;2023-12-28T00:45:53;8.73;;;6.50;;
69981;SDS011;57319;56.274;43.980;2023-12-28T00:48:18;9.00;;;6.88;;
69981;SDS011;57319;56.274;43.980;2023-12-28T00:50:44;10.50;;;6.68;;
69981;SDS011;57319;56.274;43.980;2023-12-28T00:53:10;10.02;;;6.40;;
69981;SDS011;57319;56.274;43.980;2023-12-28T00:55:35;10.98;;;6.38;;
69981;SDS011;57319;56.274;43.980;2023-12-28T00:58:01;10.63;;;7.18;;
69981;SDS011;57319;56.274;43.980;2023-12-28T01:00:27;15.48;;;7.03;;
69981;SDS011;57319;56.274;43.980;2023-12-28T01:02:54;4.43;;;4.07;;
69981;SDS011;57319;56.274;43.980;2023-12-28T01:05:19;12.05;;;6.38;;
69981;SDS011;57319;56.274;43.980;2023-12-28T01:07:46;9.05;;;6.68;;
69981;SDS011;57319;56.274;43.980;2023-12-28T01:10:12;10.23;;;7.20;;
69981;SDS011;57319;56.274;43.980;2023-12-28T01:12:38;6.75;;;3.50;;
69981;SDS011;57319;56.274;43.980;2023-12-28T01:15:03;6.00;;;4.45;;
69981;SDS011;57319;56.274;43.980;2023-12-28T01:28:31;12.50;;;7.05;;
69981;SDS011;57319;56.274;43.980;2023-12-28T01:30:57;13.55;;;7.05;;
69981;SDS011;57319;56.274;43.980;2023-12-28T01:33:23;10.60;;;7.18;;
69981;SDS011;57319;56.274;43.980;2023-12-28T01:35:48;10.70;;;5.80;;
69981;SDS011;57319;56.274;43.980;2023-12-28T01:38:14;13.50;;;6.10;;
69981;SDS011;57319;56.274;43.980;2023-12-28T01:40:43;6.45;;;4.47;;
69981;SDS011;57319;56.274;43.980;2023-12-28T01:43:10;11.68;;;6.05;;
69981;SDS011;57319;56.274;43.980;2023-12-28T01:45:36;8.13;;;6.53;;
69981;SDS011;57319;56.274;43.980;2023-12-28T01:48:02;10.77;;;6.60;;
69981;SDS011;57319;56.274;43.980;2023-12-28T01:50:28;3.88;;;3.50;;
69981;SDS011;57319;56.274;43.980;2023-12-28T01:53:08;10.05;;;7.10;;
69981;SDS011;57319;56.274;43.980;2023-12-28T01:55:34;10.32;;;6.32;;
69981;SDS011;57319;56.274;43.980;2023-12-28T01:57:59;10.32;;;6.93;;
69981;SDS011;57319;56.274;43.980;2023-12-28T02:00:25;15.35;;;7.38;;
69981;SDS011;57319;56.274;43.980;2023-12-28T02:02:51;7.80;;;5.93;;
69981;SDS011;57319;56.274;43.980;2023-12-28T02:05:17;12.88;;;7.82;;
69981;SDS011;57319;56.274;43.980;2023-12-28T02:11:05;17.23;;;8.57;;
69981;SDS011;57319;56.274;43.980;2023-12-28T02:13:30;15.00;;;8.13;;
69981;SDS011;57319;56.274;43.980;2023-12-28T02:16:02;21.67;;;4.45;;
69981;SDS011;57319;56.274;43.980;2023-12-28T02:18:34;13.32;;;7.55;;
69981;SDS011;57319;56.274;43.980;2023-12-28T02:21:08;15.00;;;8.73;;
69981;SDS011;57319;56.274;43.980;2023-12-28T02:23:34;15.27;;;7.80;;
69981;SDS011;57319;56.274;43.980;2023-12-28T02:26:00;17.85;;;8.23;;
69981;SDS011;57319;56.274;43.980;2023-12-28T02:28:26;7.78;;;5.00;;
69981;SDS011;57319;56.274;43.980;2023-12-28T02:30:52;12.15;;;7.07;;
69981;SDS011;57319;56.274;43.980;2023-12-28T02:35:52;4.65;;;4.22;;
69981;SDS011;57319;56.274;43.980;2023-12-28T02:38:22;13.95;;;8.18;;
69981;SDS011;57319;56.274;43.980;2023-12-28T02:40:49;11.77;;;4.35;;
69981;SDS011;57319;56.274;43.980;2023-12-28T02:43:16;14.85;;;6.60;;
69981;SDS011;57319;56.274;43.980;2023-12-28T02:45:42;3.80;;;1.85;;
69981;SDS011;57319;56.274;43.980;2023-12-28T02:48:07;3.28;;;2.05;;
69981;SDS011;57319;56.274;43.980;2023-12-28T02:50:33;12.05;;;6.30;;
69981;SDS011;57319;56.274;43.980;2023-12-28T02:53:00;16.77;;;8.98;;
69981;SDS011;57319;56.274;43.980;2023-12-28T02:55:26;14.30;;;8.32;;
69981;SDS011;57319;56.274;43.980;2023-12-28T02:57:53;13.63;;;6.13;;
69981;SDS011;57319;56.274;43.980;2023-12-28T03:00:28;15.50;;;8.63;;
69981;SDS011;57319;56.274;43.980;2023-12-28T03:02:54;4.35;;;4.03;;
69981;SDS011;57319;56.274;43.980;2023-12-28T03:05:20;11.43;;;5.53;;
69981;SDS011;57319;56.274;43.980;2023-12-28T03:07:45;23.40;;;8.10;;
69981;SDS011;57319;56.274;43.980;2023-12-28T03:10:11;11.82;;;6.40;;
69981;SDS011;57319;56.274;43.980;2023-12-28T03:12:37;14.23;;;6.25;;
69981;SDS011;57319;56.274;43.980;2023-12-28T03:15:03;9.95;;;6.15;;
69981;SDS011;57319;56.274;43.980;2023-12-28T03:17:31;16.40;;;8.27;;
69981;SDS011;57319;56.274;43.980;2023-12-28T03:19:58;19.00;;;8.70;;
69981;SDS011;57319;56.274;43.980;2023-12-28T03:22:24;22.10;;;10.65;;
69981;SDS011;57319;56.274;43.980;2023-12-28T03:24:50;16.90;;;8.18;;
69981;SDS011;57319;56.274;43.980;2023-12-28T03:27:17;14.50;;;8.20;;
69981;SDS011;57319;56.274;43.980;2023-12-28T03:29:42;18.63;;;8.05;;
69981;SDS011;57319;56.274;43.980;2023-12-28T03:32:08;23.17;;;9.00;;
69981;SDS011;57319;56.274;43.980;2023-12-28T03:34:34;13.27;;;6.88;;
69981;SDS011;57319;56.274;43.980;2023-12-28T03:37:00;18.92;;;9.48;;
69981;SDS011;57319;56.274;43.980;2023-12-28T03:39:26;20.05;;;9.00;;
69981;SDS011;57319;56.274;43.980;2023-12-28T03:41:52;23.35;;;8.40;;
69981;SDS011;57319;56.274;43.980;2023-12-28T03:44:18;20.13;;;7.70;;
69981;SDS011;57319;56.274;43.980;2023-12-28T03:46:50;7.15;;;4.70;;
69981;SDS011;57319;56.274;43.980;2023-12-28T03:49:17;22.45;;;8.98;;
69981;SDS011;57319;56.274;43.980;2023-12-28T03:51:43;30.73;;;11.55;;
69981;SDS011;57319;56.274;43.980;2023-12-28T03:54:09;14.25;;;5.88;;
69981;SDS011;57319;56.274;43.980;2023-12-28T03:56:34;31.70;;;10.73;;
69981;SDS011;57319;56.274;43.980;2023-12-28T03:59:01;43.03;;;13.82;;
69981;SDS011;57319;56.274;43.980;2023-12-28T04:01:27;15.55;;;7.40;;
69981;SDS011;57319;56.274;43.980;2023-12-28T04:03:52;27.67;;;10.90;;
69981;SDS011;57319;56.274;43.980;2023-12-28T04:06:18;26.83;;;11.30;;
69981;SDS011;57319;56.274;43.980;2023-12-28T04:08:44;19.80;;;8.88;;
69981;SDS011;57319;56.274;43.980;2023-12-28T04:11:09;26.08;;;9.23;;
69981;SDS011;57319;56.274;43.980;2023-12-28T04:13:35;12.50;;;7.05;;
69981;SDS011;57319;56.274;43.980;2023-12-28T04:16:02;14.52;;;7.38;;
69981;SDS011;57319;56.274;43.980;2023-12-28T04:18:28;17.75;;;9.02;;
69981;SDS011;57319;56.274;43.980;2023-12-28T04:20:53;16.35;;;3.63;;
69981;SDS011;57319;56.274;43.980;2023-12-28T04:23:19;14.60;;;8.13;;
69981;SDS011;57319;56.274;43.980;2023-12-28T04:25:45;13.88;;;7.82;;
69981;SDS011;57319;56.274;43.980;2023-12-28T04:28:11;25.95;;;10.30;;
69981;SDS011;57319;56.274;43.980;2023-12-28T04:30:36;15.90;;;8.27;;
69981;SDS011;57319;56.274;43.980;2023-12-28T04:33:02;14.27;;;8.00;;
69981;SDS011;57319;56.274;43.980;2023-12-28T04:35:28;8.80;;;4.63;;
69981;SDS011;57319;56.274;43.980;2023-12-28T04:37:54;12.35;;;6.22;;
69981;SDS011;57319;56.274;43.980;2023-12-28T04:40:20;17.92;;;8.30;;
69981;SDS011;57319;56.274;43.980;2023-12-28T04:42:46;23.58;;;9.48;;
69981;SDS011;57319;56.274;43.980;2023-12-28T04:45:11;16.63;;;8.52;;
69981;SDS011;57319;56.274;43.980;2023-12-28T04:47:37;18.15;;;8.77;;
69981;SDS011;57319;56.274;43.980;2023-12-28T04:50:03;21.52;;;11.30;;
69981;SDS011;57319;56.274;43.980;2023-12-28T04:52:30;19.92;;;8.65;;
69981;SDS011;57319;56.274;43.980;2023-12-28T04:54:56;19.17;;;9.60;;
69981;SDS011;57319;56.274;43.980;2023-12-28T04:57:22;20.30;;;10.80;;
69981;SDS011;57319;56.274;43.980;2023-12-28T04:59:50;15.35;;;9.10;;
69981;SDS011;57319;56.274;43.980;2023-12-28T05:02:18;17.42;;;7.63;;
69981;SDS011;57319;56.274;43.980;2023-12-28T05:04:43;10.13;;;6.20;;
69981;SDS011;57319;56.274;43.980;2023-12-28T05:07:09;19.42;;;9.73;;
69981;SDS011;57319;56.274;43.980;2023-12-28T05:09:35;7.80;;;5.95;;
69981;SDS011;57319;56.274;43.980;2023-12-28T05:12:00;22.25;;;9.02;;
69981;SDS011;57319;56.274;43.980;2023-12-28T05:14:27;16.02;;;8.93;;
69981;SDS011;57319;56.274;43.980;2023-12-28T05:16:53;11.50;;;4.68;;
69981;SDS011;57319;56.274;43.980;2023-12-28T05:19:18;24.08;;;8.82;;
69981;SDS011;57319;56.274;43.980;2023-12-28T05:21:44;20.08;;;9.57;;
69981;SDS011;57319;56.274;43.980;2023-12-28T05:24:10;21.33;;;9.98;;
69981;SDS011;57319;56.274;43.980;2023-12-28T05:26:36;12.60;;;8.32;;
69981;SDS011;57319;56.274;43.980;2023-12-28T05:29:02;10.23;;;6.85;;
69981;SDS011;57319;56.274;43.980;2023-12-28T05:31:27;17.05;;;9.35;;
69981;SDS011;57319;56.274;43.980;2023-12-28T05:33:53;19.67;;;8.45;;
69981;SDS011;57319;56.274;43.980;2023-12-28T05:36:19;11.48;;;6.43;;
69981;SDS011;57319;56.274;43.980;2023-12-28T05:38:44;21.75;;;10.07;;
69981;SDS011;57319;56.274;43.980;2023-12-28T05:41:10;70.78;;;10.10;;
69981;SDS011;57319;56.274;43.980;2023-12-28T05:43:38;16.35;;;7.82;;
69981;SDS011;57319;56.274;43.980;2023-12-28T05:46:04;4.82;;;3.90;;
69981;SDS011;57319;56.274;43.980;2023-12-28T05:48:30;16.67;;;7.40;;
69981;SDS011;57319;56.274;43.980;2023-12-28T05:50:59;10.15;;;6.53;;
69981;SDS011;57319;56.274;43.980;2023-12-28T05:53:25;17.30;;;7.55;;
69981;SDS011;57319;56.274;43.980;2023-12-28T05:55:53;90.22;;;9.80;;
69981;SDS011;57319;56.274;43.980;2023-12-28T05:58:18;8.25;;;5.18;;
69981;SDS011;57319;56.274;43.980;2023-12-28T06:00:44;18.73;;;8.75;;
69981;SDS011;57319;56.274;43.980;2023-12-28T06:03:14;16.38;;;6.38;;
69981;SDS011;57319;56.274;43.980;2023-12-28T06:05:40;9.75;;;6.32;;
69981;SDS011;57319;56.274;43.980;2023-12-28T06:08:06;67.53;;;9.60;;
69981;SDS011;57319;56.274;43.980;2023-12-28T06:10:32;5.28;;;4.72;;
69981;SDS011;57319;56.274;43.980;2023-12-28T06:12:57;8.40;;;6.35;;
69981;SDS011;57319;56.274;43.980;2023-12-28T06:15:23;20.40;;;8.10;;
69981;SDS011;57319;56.274;43.980;2023-12-28T06:17:49;87.63;;;9.70;;
69981;SDS011;57319;56.274;43.980;2023-12-28T06:20:14;87.55;;;12.50;;
69981;SDS011;57319;56.274;43.980;2023-12-28T06:22:40;48.30;;;6.00;;
69981;SDS011;57319;56.274;43.980;2023-12-28T06:25:06;55.47;;;7.43;;
69981;SDS011;57319;56.274;43.980;2023-12-28T06:27:32;22.67;;;8.60;;
69981;SDS011;57319;56.274;43.980;2023-12-28T06:29:58;226.90;;;17.65;;
69981;SDS011;57319;56.274;43.980;2023-12-28T06:32:23;21.23;;;7.03;;
69981;SDS011;57319;56.274;43.980;2023-12-28T06:34:49;82.05;;;9.45;;
69981;SDS011;57319;56.274;43.980;2023-12-28T06:37:14;23.30;;;8.00;;
69981;SDS011;57319;56.274;43.980;2023-12-28T06:39:40;7.10;;;5.05;;
69981;SDS011;57319;56.274;43.980;2023-12-28T06:42:06;13.48;;;7.55;;
69981;SDS011;57319;56.274;43.980;2023-12-28T06:44:32;12.40;;;6.30;;
69981;SDS011;57319;56.274;43.980;2023-12-28T06:46:58;16.90;;;6.70;;
69981;SDS011;57319;56.274;43.980;2023-12-28T06:49:24;16.42;;;7.03;;
69981;SDS011;57319;56.274;43.980;2023-12-28T06:51:51;36.78;;;9.68;;
69981;SDS011;57319;56.274;43.980;2023-12-28T06:54:17;42.33;;;9.82;;
69981;SDS011;57319;56.274;43.980;2023-12-28T06:56:42;32.67;;;6.88;;
69981;SDS011;57319;56.274;43.980;2023-12-28T06:59:08;25.52;;;7.35;;
69981;SDS011;57319;56.274;43.980;2023-12-28T07:01:40;13.55;;;4.55;;
69981;SDS011;57319;56.274;43.980;2023-12-28T07:04:06;3.08;;;2.08;;
69981;SDS011;57319;56.274;43.980;2023-12-28T07:06:31;12.40;;;6.45;;
69981;SDS011;57319;56.274;43.980;2023-12-28T07:08:57;17.60;;;6.95;;
69981;SDS011;57319;56.274;43.980;2023-12-28T07:11:23;31.17;;;7.18;;
69981;SDS011;57319;56.274;43.980;2023-12-28T07:13:49;10.70;;;5.05;;
69981;SDS011;57319;56.274;43.980;2023-12-28T07:16:14;11.27;;;4.85;;
69981;SDS011;57319;56.274;43.980;2023-12-28T07:18:41;16.63;;;6.20;;
69981;SDS011;57319;56.274;43.980;2023-12-28T07:21:07;11.05;;;5.18;;
69981;SDS011;57319;56.274;43.980;2023-12-28T07:23:36;4.15;;;3.28;;
69981;SDS011;57319;56.274;43.980;2023-12-28T07:26:03;29.92;;;7.55;;
69981;SDS011;57319;56.274;43.980;2023-12-28T07:28:31;12.38;;;4.50;;
69981;SDS011;57319;56.274;43.980;2023-12-28T07:30:56;5.35;;;3.60;;
69981;SDS011;57319;56.274;43.980;2023-12-28T07:33:22;10.68;;;5.88;;
69981;SDS011;57319;56.274;43.980;2023-12-28T07:35:48;30.33;;;5.63;;
69981;SDS011;57319;56.274;43.980;2023-12-28T07:38:13;5.45;;;4.30;;
69981;SDS011;57319;56.274;43.980;2023-12-28T07:40:39;7.38;;;2.97;;
69981;SDS011;57319;56.274;43.980;2023-12-28T07:43:05;7.60;;;2.25;;
69981;SDS011;57319;56.274;43.980;2023-12-28T07:45:31;5.03;;;3.97;;
69981;SDS011;57319;56.274;43.980;2023-12-28T07:47:59;14.63;;;3.80;;
69981;SDS011;57319;56.274;43.980;2023-12-28T07:50:25;55.53;;;7.40;;
69981;SDS011;57319;56.274;43.980;2023-12-28T07:52:51;11.25;;;5.07;;
69981;SDS011;57319;56.274;43.980;2023-12-28T07:55:17;4.45;;;3.35;;
69981;SDS011;57319;56.274;43.980;2023-12-28T07:57:44;6.18;;;4.90;;
69981;SDS011;57319;56.274;43.980;2023-12-28T08:00:10;8.35;;;4.38;;
69981;SDS011;57319;56.274;43.980;2023-12-28T08:02:36;75.65;;;8.75;;
69981;SDS011;57319;56.274;43.980;2023-12-28T08:05:01;44.63;;;8.35;;
69981;SDS011;57319;56.274;43.980;2023-12-28T08:07:28;16.45;;;3.88;;
69981;SDS011;57319;56.274;43.980;2023-12-28T08:09:54;18.10;;;6.35;;
69981;SDS011;57319;56.274;43.980;2023-12-28T08:12:19;5.22;;;2.53;;
69981;SDS011;57319;56.274;43.980;2023-12-28T08:14:46;2.03;;;1.92;;
69981;SDS011;57319;56.274;43.980;2023-12-28T08:17:12;14.50;;;6.40;;
69981;SDS011;57319;56.274;43.980;2023-12-28T08:19:38;44.63;;;7.10;;
69981;SDS011;57319;56.274;43.980;2023-12-28T08:22:04;14.10;;;5.10;;
69981;SDS011;57319;56.274;43.980;2023-12-28T08:24:30;16.55;;;6.13;;
69981;SDS011;57319;56.274;43.980;2023-12-28T08:26:55;4.88;;;3.50;;
69981;SDS011;57319;56.274;43.980;2023-12-28T08:29:25;76.03;;;8.70;;
69981;SDS011;57319;56.274;43.980;2023-12-28T08:31:51;149.18;;;10.95;;
69981;SDS011;57319;56.274;43.980;2023-12-28T08:34:17;14.68;;;6.10;;
69981;SDS011;57319;56.274;43.980;2023-12-28T08:36:43;6.57;;;5.30;;
69981;SDS011;57319;56.274;43.980;2023-12-28T08:39:09;7.13;;;4.57;;
69981;SDS011;57319;56.274;43.980;2023-12-28T08:41:34;2.38;;;1.85;;
69981;SDS011;57319;56.274;43.980;2023-12-28T08:44:00;6.88;;;4.50;;
69981;SDS011;57319;56.274;43.980;2023-12-28T08:46:26;9.05;;;4.63;;
69981;SDS011;57319;56.274;43.980;2023-12-28T08:48:52;5.88;;;4.78;;
69981;SDS011;57319;56.274;43.980;2023-12-28T08:51:18;3.10;;;2.90;;
69981;SDS011;57319;56.274;43.980;2023-12-28T08:53:43;2.17;;;2.03;;
69981;SDS011;57319;56.274;43.980;2023-12-28T08:56:13;4.45;;;2.42;;
69981;SDS011;57319;56.274;43.980;2023-12-28T08:58:43;3.22;;;2.92;;
69981;SDS011;57319;56.274;43.980;2023-12-28T09:01:15;2.30;;;2.20;;
69981;SDS011;57319;56.274;43.980;2023-12-28T09:03:43;2.17;;;2.00;;
69981;SDS011;57319;56.274;43.980;2023-12-28T09:06:09;4.15;;;3.67;;
69981;SDS011;57319;56.274;43.980;2023-12-28T09:08:35;2.25;;;2.15;;
69981;SDS011;57319;56.274;43.980;2023-12-28T09:11:01;3.15;;;2.95;;
69981;SDS011;57319;56.274;43.980;2023-12-28T09:13:27;2.88;;;2.60;;
69981;SDS011;57319;56.274;43.980;2023-12-28T09:15:52;5.70;;;3.78;;
69981;SDS011;57319;56.274;43.980;2023-12-28T09:18:18;4.07;;;2.63;;
69981;SDS011;57319;56.274;43.980;2023-12-28T09:20:44;4.68;;;4.25;;
69981;SDS011;57319;56.274;43.980;2023-12-28T09:23:09;6.07;;;3.50;;
69981;SDS011;57319;56.274;43.980;2023-12-28T09:25:36;3.30;;;3.00;;
69981;SDS011;57319;56.274;43.980;2023-12-28T09:28:04;2.72;;;2.42;;
69981;SDS011;57319;56.274;43.980;2023-12-28T09:30:31;4.43;;;2.95;;
69981;SDS011;57319;56.274;43.980;2023-12-28T09:32:56;1.02;;;1.02;;
69981;SDS011;57319;56.274;43.980;2023-12-28T09:35:22;2.50;;;2.40;;
69981;SDS011;57319;56.274;43.980;2023-12-28T09:37:48;31.33;;;4.03;;
69981;SDS011;57319;56.274;43.980;2023-12-28T09:40:14;3.00;;;2.80;;
69981;SDS011;57319;56.274;43.980;2023-12-28T09:42:48;7.68;;;2.08;;
69981;SDS011;57319;56.274;43.980;2023-12-28T09:45:19;41.78;;;4.43;;
69981;SDS011;57319;56.274;43.980;2023-12-28T09:47:46;14.10;;;2.88;;
69981;SDS011;57319;56.274;43.980;2023-12-28T09:50:14;24.60;;;3.92;;
69981;SDS011;57319;56.274;43.980;2023-12-28T09:52:42;1.95;;;1.85;;
69981;SDS011;57319;56.274;43.980;2023-12-28T09:55:11;3.67;;;2.40;;
69981;SDS011;57319;56.274;43.980;2023-12-28T09:57:37;1.75;;;1.65;;
69981;SDS011;57319;56.274;43.980;2023-12-28T10:00:03;3.38;;;3.08;;
69981;SDS011;57319;56.274;43.980;2023-12-28T10:02:32;33.50;;;3.95;;
69981;SDS011;57319;56.274;43.980;2023-12-28T10:04:59;18.48;;;3.80;;
69981;SDS011;57319;56.274;43.980;2023-12-28T10:07:24;4.35;;;2.55;;
69981;SDS011;57319;56.274;43.980;2023-12-28T10:09:51;24.25;;;4.95;;
69981;SDS011;57319;56.274;43.980;2023-12-28T10:12:17;24.88;;;4.13;;
69981;SDS011;57319;56.274;43.980;2023-12-28T10:14:43;89.47;;;5.82;;
69981;SDS011;57319;56.274;43.980;2023-12-28T10:17:09;2.67;;;2.42;;
69981;SDS011;57319;56.274;43.980;2023-12-28T10:19:36;6.28;;;1.33;;
69981;SDS011;57319;56.274;43.980;2023-12-28T10:22:02;1.75;;;1.50;;
69981;SDS011;57319;56.274;43.980;2023-12-28T10:24:28;2.25;;;2.15;;
69981;SDS011;57319;56.274;43.980;2023-12-28T10:26:53;3.75;;;2.78;;
69981;SDS011;57319;56.274;43.980;2023-12-28T10:29:19;4.35;;;2.97;;
69981;SDS011;57319;56.274;43.980;2023-12-28T10:31:45;3.10;;;2.83;;
69981;SDS011;57319;56.274;43.980;2023-12-28T10:34:14;0.45;;;0.45;;
69981;SDS011;57319;56.274;43.980;2023-12-28T10:36:40;2.65;;;2.22;;
69981;SDS011;57319;56.274;43.980;2023-12-28T10:39:07;2.00;;;1.90;;
69981;SDS011;57319;56.274;43.980;2023-12-28T10:41:36;3.88;;;3.58;;
69981;SDS011;57319;56.274;43.980;2023-12-28T10:44:04;2.75;;;2.55;;
69981;SDS011;57319;56.274;43.980;2023-12-28T10:46:31;3.45;;;2.60;;
69981;SDS011;57319;56.274;43.980;2023-12-28T10:49:10;1.98;;;1.70;;
69981;SDS011;57319;56.274;43.980;2023-12-28T10:51:40;3.05;;;2.85;;
69981;SDS011;57319;56.274;43.980;2023-12-28T10:56:56;48.55;;;5.30;;
69981;SDS011;57319;56.274;43.980;2023-12-28T10:59:45;5.03;;;3.53;;
69981;SDS011;57319;56.274;43.980;2023-12-28T11:02:16;3.85;;;3.45;;
69981;SDS011;57319;56.274;43.980;2023-12-28T11:04:49;1.67;;;1.58;;
69981;SDS011;57319;56.274;43.980;2023-12-28T11:07:18;10.45;;;4.35;;
69981;SDS011;57319;56.274;43.980;2023-12-28T11:09:46;23.25;;;4.47;;
69981;SDS011;57319;56.274;43.980;2023-12-28T11:12:13;2.55;;;2.35;;
69981;SDS011;57319;56.274;43.980;2023-12-28T11:14:43;2.92;;;2.70;;
69981;SDS011;57319;56.274;43.980;2023-12-28T11:17:10;2.17;;;1.50;;
69981;SDS011;57319;56.274;43.980;2023-12-28T11:19:36;4.80;;;3.08;;
69981;SDS011;57319;56.274;43.980;2023-12-28T11:22:03;3.50;;;3.17;;
69981;SDS011;57319;56.274;43.980;2023-12-28T11:24:30;6.57;;;3.40;;
69981;SDS011;57319;56.274;43.980;2023-12-28T11:26:57;5.45;;;3.53;;
69981;SDS011;57319;56.274;43.980;2023-12-28T11:29:24;1.73;;;1.63;;
69981;SDS011;57319;56.274;43.980;2023-12-28T11:31:53;2.95;;;2.75;;
69981;SDS011;57319;56.274;43.980;2023-12-28T11:34:30;2.90;;;1.92;;
69981;SDS011;57319;56.274;43.980;2023-12-28T11:37:08;3.00;;;2.67;;
69981;SDS011;57319;56.274;43.980;2023-12-28T11:39:39;2.42;;;2.22;;
69981;SDS011;57319;56.274;43.980;2023-12-28T11:42:09;3.38;;;3.08;;
69981;SDS011;57319;56.274;43.980;2023-12-28T11:44:39;1.92;;;1.83;;
69981;SDS011;57319;56.274;43.980;2023-12-28T11:47:22;3.15;;;2.75;;
69981;SDS011;57319;56.274;43.980;2023-12-28T11:49:49;4.53;;;2.85;;
69981;SDS011;57319;56.274;43.980;2023-12-28T11:52:27;3.53;;;3.00;;
69981;SDS011;57319;56.274;43.980;2023-12-28T11:54:54;6.50;;;4.13;;
69981;SDS011;57319;56.274;43.980;2023-12-28T11:57:20;6.15;;;3.40;;
69981;SDS011;57319;56.274;43.980;2023-12-28T11:59:48;3.05;;;2.80;;
69981;SDS011;57319;56.274;43.980;2023-12-28T12:02:18;3.22;;;2.97;;
69981;SDS011;57319;56.274;43.980;2023-12-28T12:04:44;3.90;;;3.60;;
69981;SDS011;57319;56.274;43.980;2023-12-28T12:07:09;26.70;;;5.20;;
69981;SDS011;57319;56.274;43.980;2023-12-28T12:09:35;3.67;;;3.30;;
69981;SDS011;57319;56.274;43.980;2023-12-28T12:12:01;10.88;;;4.22;;
69981;SDS011;57319;56.274;43.980;2023-12-28T12:14:28;6.57;;;3.90;;
69981;SDS011;57319;56.274;43.980;2023-12-28T12:16:55;2.47;;;2.35;;
69981;SDS011;57319;56.274;43.980;2023-12-28T12:19:24;2.88;;;2.67;;
69981;SDS011;57319;56.274;43.980;2023-12-28T12:21:54;4.35;;;3.42;;
69981;SDS011;57319;56.274;43.980;2023-12-28T12:24:20;9.93;;;2.85;;
69981;SDS011;57319;56.274;43.980;2023-12-28T12:26:47;6.53;;;2.40;;
69981;SDS011;57319;56.274;43.980;2023-12-28T12:29:15;3.30;;;3.10;;
69981;SDS011;57319;56.274;43.980;2023-12-28T12:31:41;4.30;;;3.80;;
69981;SDS011;57319;56.274;43.980;2023-12-28T12:34:09;7.95;;;3.05;;
69981;SDS011;57319;56.274;43.980;2023-12-28T12:36:35;2.88;;;2.70;;
69981;SDS011;57319;56.274;43.980;2023-12-28T12:39:02;2.25;;;2.05;;
69981;SDS011;57319;56.274;43.980;2023-12-28T12:41:32;3.22;;;2.92;;
69981;SDS011;57319;56.274;43.980;2023-12-28T12:43:58;5.68;;;3.05;;
69981;SDS011;57319;56.274;43.980;2023-12-28T12:46:24;3.03;;;2.67;;
69981;SDS011;57319;56.274;43.980;2023-12-28T12:48:54;3.67;;;3.25;;
69981;SDS011;57319;56.274;43.980;2023-12-28T12:51:21;2.20;;;2.10;;
69981;SDS011;57319;56.274;43.980;2023-12-28T12:53:47;2.22;;;1.70;;
69981;SDS011;57319;56.274;43.980;2023-12-28T12:56:12;4.40;;;4.00;;
69981;SDS011;57319;56.274;43.980;2023-12-28T12:58:38;4.57;;;2.88;;
69981;SDS011;57319;56.274;43.980;2023-12-28T13:01:04;7.38;;;5.35;;
69981;SDS011;57319;56.274;43.980;2023-12-28T13:03:30;4.15;;;3.78;;
69981;SDS011;57319;56.274;43.980;2023-12-28T13:05:56;21.42;;;6.00;;
69981;SDS011;57319;56.274;43.980;2023-12-28T13:08:22;7.03;;;4.68;;
69981;SDS011;57319;56.274;43.980;2023-12-28T13:10:48;5.78;;;4.18;;
69981;SDS011;57319;56.274;43.980;2023-12-28T13:13:15;9.50;;;5.45;;
69981;SDS011;57319;56.274;43.980;2023-12-28T13:15:41;8.20;;;4.63;;
69981;SDS011;57319;56.274;43.980;2023-12-28T13:18:06;5.15;;;4.25;;
69981;SDS011;57319;56.274;43.980;2023-12-28T13:20:32;8.43;;;3.78;;
69981;SDS011;57319;56.274;43.980;2023-12-28T13:22:58;6.82;;;2.22;;
69981;SDS011;57319;56.274;43.980;2023-12-28T13:25:23;6.57;;;4.75;;
69981;SDS011;57319;56.274;43.980;2023-12-28T13:27:49;11.65;;;4.97;;
69981;SDS011;57319;56.274;43.980;2023-12-28T13:30:15;11.77;;;6.55;;
69981;SDS011;57319;56.274;43.980;2023-12-28T13:32:42;10.63;;;4.15;;
69981;SDS011;57319;56.274;43.980;2023-12-28T13:35:07;12.18;;;6.43;;
69981;SDS011;57319;56.274;43.980;2023-12-28T13:37:33;6.20;;;4.82;;
69981;SDS011;57319;56.274;43.980;2023-12-28T13:39:59;8.45;;;5.05;;
69981;SDS011;57319;56.274;43.980;2023-12-28T13:42:24;8.65;;;4.75;;
69981;SDS011;57319;56.274;43.980;2023-12-28T13:44:50;11.50;;;5.15;;
69981;SDS011;57319;56.274;43.980;2023-12-28T13:47:16;16.38;;;5.32;;
69981;SDS011;57319;56.274;43.980;2023-12-28T13:49:41;7.22;;;3.17;;
69981;SDS011;57319;56.274;43.980;2023-12-28T13:52:08;17.73;;;6.68;;
69981;SDS011;57319;56.274;43.980;2023-12-28T13:54:34;16.70;;;5.05;;
69981;SDS011;57319;56.274;43.980;2023-12-28T13:57:00;6.57;;;3.75;;
69981;SDS011;57319;56.274;43.980;2023-12-28T13:59:25;14.60;;;4.75;;
69981;SDS011;57319;56.274;43.980;2023-12-28T14:01:51;6.50;;;3.92;;
69981;SDS011;57319;56.274;43.980;2023-12-28T14:04:17;6.28;;;3.25;;
69981;SDS011;57319;56.274;43.980;2023-12-28T14:06:43;7.03;;;5.30;;
69981;SDS011;57319;56.274;43.980;2023-12-28T14:09:09;3.85;;;3.55;;
69981;SDS011;57319;56.274;43.980;2023-12-28T14:11:34;5.47;;;4.43;;
69981;SDS011;57319;56.274;43.980;2023-12-28T14:14:00;6.65;;;2.95;;
69981;SDS011;57319;56.274;43.980;2023-12-28T14:16:25;3.25;;;3.00;;
69981;SDS011;57319;56.274;43.980;2023-12-28T14:18:51;13.52;;;5.97;;
69981;SDS011;57319;56.274;43.980;2023-12-28T14:21:18;8.18;;;4.55;;
69981;SDS011;57319;56.274;43.980;2023-12-28T14:23:44;3.72;;;3.20;;
69981;SDS011;57319;56.274;43.980;2023-12-28T14:26:13;9.15;;;4.47;;
69981;SDS011;57319;56.274;43.980;2023-12-28T14:28:41;8.00;;;4.57;;
69981;SDS011;57319;56.274;43.980;2023-12-28T14:31:09;1.75;;;1.65;;
69981;SDS011;57319;56.274;43.980;2023-12-28T14:33:36;3.92;;;3.55;;
69981;SDS011;57319;56.274;43.980;2023-12-28T14:36:04;3.90;;;2.15;;
69981;SDS011;57319;56.274;43.980;2023-12-28T14:38:33;5.22;;;3.40;;
69981;SDS011;57319;56.274;43.980;2023-12-28T14:40:59;7.13;;;5.00;;
69981;SDS011;57319;56.274;43.980;2023-12-28T14:43:25;7.47;;;4.55;;